createdAt,value
2019-05-03T00:04:45.000Z,8.90
2019-05-03T00:15:27.029Z,8.76
2019-05-03T00:26:08.019Z,8.69
2019-05-03T00:36:52.485Z,8.67
2019-05-03T00:47:36.126Z,8.57
2019-05-03T00:58:22.228Z,8.55
2019-05-03T01:08:58.205Z,8.55
2019-05-03T01:19:42.986Z,8.55
2019-05-03T01:30:20.174Z,8.57
2019-05-03T01:41:05.059Z,8.62
2019-05-03T01:51:48.194Z,8.68
2019-05-03T02:02:28.991Z,8.66
2019-05-03T02:13:12.399Z,8.70
2019-05-03T02:23:49.182Z,8.71
2019-05-03T02:34:32.705Z,8.74
2019-05-03T02:45:15.472Z,8.76
2019-05-03T02:56:13.983Z,8.70
2019-05-03T03:06:38.160Z,8.66
2019-05-03T03:17:21.367Z,8.69
2019-05-03T03:28:05.419Z,8.73
2019-05-03T03:38:48.366Z,8.73
2019-05-03T03:49:32.309Z,8.69
2019-05-03T04:00:16.296Z,8.72
2019-05-03T04:10:59.269Z,8.73
2019-05-03T04:21:45.323Z,8.67
2019-05-03T04:32:28.480Z,8.65
2019-05-03T04:43:07.415Z,8.59
2019-05-03T04:53:52.196Z,8.65
2019-05-03T05:04:35.722Z,8.62
2019-05-03T05:15:19.122Z,8.63
2019-05-03T05:26:05.477Z,8.67
2019-05-03T05:36:39.493Z,8.78
2019-05-03T05:47:21.518Z,10.35
2019-05-03T05:58:08.375Z,9.57
2019-05-03T06:08:50.174Z,9.53
2019-05-03T06:19:26.257Z,9.34
2019-05-03T06:30:11.517Z,9.24
2019-05-03T06:40:55.160Z,9.35
2019-05-03T06:51:40.007Z,10.13
2019-05-03T07:02:20.340Z,9.62
2019-05-03T07:13:08.616Z,9.73
2019-05-03T07:23:49.669Z,9.81
2019-05-03T07:34:35.304Z,9.97
2019-05-03T07:45:20.309Z,9.52
2019-05-03T07:56:05.445Z,9.66
2019-05-03T08:06:47.367Z,9.68
2019-05-03T08:17:34.617Z,10.40
2019-05-03T08:28:15.667Z,9.98
2019-05-03T08:39:00.624Z,10.58
2019-05-03T08:49:45.060Z,10.71
2019-05-03T09:00:24.849Z,10.43
2019-05-03T09:11:10.594Z,10.70
2019-05-03T09:21:54.826Z,10.62
2019-05-03T09:32:32.362Z,11.12
2019-05-03T09:43:16.295Z,11.63
2019-05-03T09:54:01.628Z,11.54
2019-05-03T10:04:45.514Z,12.00
2019-05-03T10:15:29.361Z,11.71
2019-05-03T10:26:05.100Z,11.91
2019-05-03T10:36:41.537Z,12.07
2019-05-03T10:47:25.975Z,12.10
2019-05-03T10:58:07.417Z,12.32
2019-05-03T11:08:54.628Z,12.66
2019-05-03T11:19:38.698Z,12.28
2019-05-03T11:30:20.452Z,12.74
2019-05-03T11:41:04.895Z,12.59
2019-05-03T11:51:44.630Z,12.60
2019-05-03T12:02:18.374Z,12.83
2019-05-03T12:12:58.409Z,13.15
2019-05-03T12:23:40.948Z,12.67
2019-05-03T12:34:25.587Z,12.74
2019-05-03T12:45:01.786Z,13.13
2019-05-03T12:55:45.305Z,13.61
2019-05-03T13:06:29.510Z,13.90
2019-05-03T13:17:11.313Z,13.93
2019-05-03T13:27:49.663Z,14.49
2019-05-03T13:38:31.636Z,15.17
2019-05-03T13:49:08.668Z,14.62
2019-05-03T13:59:44.861Z,15.49
2019-05-03T14:10:18.615Z,13.69
2019-05-03T14:20:55.700Z,13.88
2019-05-03T14:31:36.745Z,14.02
2019-05-03T14:42:09.490Z,13.54
2019-05-03T14:52:45.458Z,14.11
2019-05-03T15:03:21.928Z,13.80
2019-05-03T15:14:05.654Z,13.81
2019-05-03T15:24:48.747Z,13.81
2019-05-03T15:35:28.494Z,13.21
2019-05-03T15:46:05.202Z,12.62
2019-05-03T15:56:47.708Z,12.75
2019-05-03T16:07:29.538Z,12.24
2019-05-03T16:18:14.679Z,12.08
2019-05-03T16:28:55.969Z,11.78
2019-05-03T16:39:39.937Z,11.78
2019-05-03T16:50:18.900Z,11.63
2019-05-03T17:01:01.886Z,10.56
2019-05-03T17:11:42.448Z,9.97
2019-05-03T17:22:25.871Z,9.85
2019-05-03T17:33:10.604Z,9.64
2019-05-03T17:43:51.821Z,9.76
2019-05-03T17:54:35.895Z,9.89
2019-05-03T18:05:18.914Z,9.85
2019-05-03T18:16:00.672Z,9.81
2019-05-03T18:26:44.548Z,9.68
2019-05-03T18:37:17.632Z,9.54
2019-05-03T18:48:01.954Z,9.47
2019-05-03T18:58:42.548Z,9.32
2019-05-03T19:09:19.834Z,9.22
2019-05-03T19:20:04.869Z,9.13
2019-05-03T19:30:45.576Z,8.97
2019-05-03T19:41:28.787Z,8.87
2019-05-03T19:52:11.576Z,8.72
2019-05-03T20:02:51.904Z,8.76
2019-05-03T20:13:37.264Z,8.80
2019-05-03T20:24:17.603Z,8.72
2019-05-03T20:35:12.914Z,8.75
2019-05-03T20:45:39.955Z,8.68
2019-05-03T20:56:24.598Z,8.63
2019-05-03T21:07:06.954Z,8.65
2019-05-03T21:17:50.048Z,8.65
2019-05-03T21:28:30.061Z,8.64
2019-05-03T21:39:11.768Z,8.58
2019-05-03T21:49:54.909Z,8.59
2019-05-03T22:00:39.829Z,8.49
2019-05-03T22:11:25.157Z,8.44
2019-05-03T22:22:06.080Z,8.34
2019-05-03T22:32:47.802Z,8.28
2019-05-03T22:43:30.962Z,8.29
2019-05-03T22:54:15.382Z,8.31
2019-05-03T23:04:57.944Z,8.37
2019-05-03T23:15:40.639Z,8.42
2019-05-03T23:26:19.162Z,8.42
2019-05-03T23:37:01.721Z,8.43
2019-05-03T23:47:45.162Z,8.31
2019-05-03T23:58:27.904Z,8.33
